Time;durP1;ratioP1;P1;durP2;ratioP2;P2;SDS_P1;SDS_P2;PMS_P1;PMS_P2;Temp;Humidity;BMP_temperature;BMP_pressure;BME280_temperature;BME280_humidity;BME280_pressure;Samples;Min_cycle;Max_cycle;Signal;HPM_P1;HPM_P2
2023/08/23 00:00:49;;;;;;;8.93;8.20;;;25.50;20.70;;;;;;5075565;28;20256;-77
2023/08/23 00:03:14;;;;;;;9.23;8.63;;;25.60;20.70;;;;;;5075399;28;20293;-77
2023/08/23 00:05:43;;;;;;;10.07;9.10;;;25.60;20.70;;;;;;5075198;28;20195;-76
2023/08/23 00:08:08;;;;;;;9.87;8.90;;;25.60;20.70;;;;;;5090748;28;20593;-76
2023/08/23 00:10:34;;;;;;;9.80;9.20;;;25.60;20.60;;;;;;5075087;28;20402;-77
2023/08/23 00:12:59;;;;;;;9.50;9.00;;;25.60;20.70;;;;;;5073833;28;20175;-77
2023/08/23 00:15:25;;;;;;;9.53;8.73;;;25.60;20.80;;;;;;5075109;28;20199;-76
2023/08/23 00:17:50;;;;;;;8.90;8.30;;;25.50;21.10;;;;;;5074697;28;20637;-76
2023/08/23 00:20:16;;;;;;;8.77;8.27;;;25.50;21.30;;;;;;5073583;28;20179;-76
2023/08/23 00:22:41;;;;;;;9.10;8.60;;;25.50;21.40;;;;;;5135633;22;20237;-79
2023/08/23 00:25:09;;;;;;;7.70;7.40;;;25.40;22.20;;;;;;5060745;28;20199;-79
2023/08/23 00:27:35;;;;;;;10.10;9.30;;;25.40;21.60;;;;;;5056179;28;20234;-79
2023/08/23 00:30:02;;;;;;;8.87;8.37;;;25.40;21.60;;;;;;5039138;28;20426;-79
2023/08/23 00:32:28;;;;;;;9.00;8.33;;;25.40;21.60;;;;;;5021459;28;20439;-79
2023/08/23 00:34:54;;;;;;;8.70;8.30;;;25.50;21.40;;;;;;5036130;28;20852;-79
2023/08/23 00:37:20;;;;;;;9.00;8.50;;;25.50;21.90;;;;;;5036274;28;20426;-80
2023/08/23 00:39:47;;;;;;;9.43;8.63;;;25.40;21.90;;;;;;5035346;28;20732;-80
2023/08/23 00:42:14;;;;;;;9.40;8.80;;;25.40;22.50;;;;;;5055346;28;20450;-79
2023/08/23 00:44:39;;;;;;;9.70;9.00;;;25.30;21.80;;;;;;5036548;28;20518;-79
2023/08/23 00:47:05;;;;;;;8.90;8.40;;;25.30;21.90;;;;;;5056377;28;20548;-79
2023/08/23 00:49:34;;;;;;;9.17;8.47;;;25.30;22.10;;;;;;5043429;28;20534;-79
2023/08/23 00:52:01;;;;;;;9.77;9.20;;;25.30;22.00;;;;;;5061486;28;20187;-80
2023/08/23 00:54:30;;;;;;;12.53;9.10;;;25.30;22.20;;;;;;5056029;28;20912;-79
2023/08/23 00:57:00;;;;;;;10.07;9.53;;;25.30;22.20;;;;;;5036864;28;20803;-80
2023/08/23 00:59:26;;;;;;;9.90;9.40;;;25.30;22.30;;;;;;5020941;28;20465;-80
2023/08/23 01:01:51;;;;;;;11.00;10.30;;;25.30;22.40;;;;;;5037932;28;20419;-79
2023/08/23 01:04:17;;;;;;;11.30;10.70;;;25.30;22.50;;;;;;5056347;28;20180;-79
2023/08/23 01:07:13;;;;;;;11.03;10.43;;;25.30;22.40;;;;;;5042912;28;20196;-79
2023/08/23 01:09:54;;;;;;;11.33;10.63;;;25.30;22.30;;;;;;5072531;28;20165;-79
2023/08/23 01:12:35;;;;;;;10.80;10.20;;;25.30;22.70;;;;;;5064984;28;20437;-80
2023/08/23 01:15:13;;;;;;;11.80;11.00;;;25.20;22.70;;;;;;5055122;28;20480;-80
2023/08/23 01:17:42;;;;;;;10.70;10.20;;;25.20;22.80;;;;;;5057285;28;20784;-80
2023/08/23 01:20:13;;;;;;;11.40;10.70;;;25.10;22.90;;;;;;5058540;28;20423;-79
2023/08/23 01:22:44;;;;;;;10.97;10.27;;;25.20;23.10;;;;;;5040400;28;20435;-80
2023/08/23 01:25:09;;;;;;;11.30;10.40;;;25.10;23.00;;;;;;5064172;28;20422;-80
2023/08/23 01:27:35;;;;;;;10.83;10.17;;;25.10;23.00;;;;;;5067586;28;20476;-80
2023/08/23 01:30:32;;;;;;;10.50;9.83;;;25.10;23.10;;;;;;5061731;28;20187;-79
2023/08/23 01:33:18;;;;;;;11.07;10.47;;;25.10;22.90;;;;;;5059389;28;20210;-80
2023/08/23 01:35:56;;;;;;;11.57;10.67;;;25.10;23.10;;;;;;5043103;28;20418;-80
2023/08/23 01:38:23;;;;;;;11.60;11.00;;;25.10;23.00;;;;;;5058039;28;20509;-79
2023/08/23 01:40:49;;;;;;;11.20;10.50;;;25.10;23.00;;;;;;5057585;28;20403;-79
2023/08/23 01:43:14;;;;;;;10.90;10.20;;;25.10;23.00;;;;;;5057533;28;20430;-80
2023/08/23 01:45:40;;;;;;;10.77;10.27;;;25.00;23.10;;;;;;5056763;28;20183;-80
2023/08/23 01:48:06;;;;;;;10.43;9.83;;;24.90;23.50;;;;;;5056859;28;20207;-79
2023/08/23 01:50:31;;;;;;;10.60;10.10;;;24.90;23.60;;;;;;5057601;28;20183;-80
2023/08/23 01:52:57;;;;;;;11.80;11.20;;;24.90;23.60;;;;;;5039505;28;20227;-80
2023/08/23 01:55:23;;;;;;;11.97;11.10;;;24.90;23.70;;;;;;5057381;28;20198;-80
2023/08/23 01:57:49;;;;;;;10.63;10.03;;;24.90;23.70;;;;;;5056744;28;20183;-79
2023/08/23 02:00:15;;;;;;;10.33;9.57;;;24.90;23.90;;;;;;5059694;28;20415;-79
2023/08/23 02:02:40;;;;;;;11.60;10.43;;;24.80;23.90;;;;;;5063702;28;20196;-79
2023/08/23 02:05:06;;;;;;;10.97;10.17;;;24.80;24.00;;;;;;5063561;28;20414;-80
2023/08/23 02:07:32;;;;;;;12.20;11.40;;;24.80;24.20;;;;;;5045426;28;20250;-80
2023/08/23 02:09:57;;;;;;;11.70;10.90;;;24.80;24.30;;;;;;5060370;28;20470;-80
2023/08/23 02:12:23;;;;;;;12.07;11.37;;;24.80;24.30;;;;;;5063797;28;20247;-80
2023/08/23 02:14:48;;;;;;;11.20;10.60;;;24.80;24.70;;;;;;5063531;28;20267;-80
2023/08/23 02:17:14;;;;;;;12.30;11.60;;;24.70;24.80;;;;;;5063664;28;20180;-80
2023/08/23 02:19:39;;;;;;;11.53;10.60;;;24.70;24.90;;;;;;5063898;28;20577;-81
2023/08/23 02:22:05;;;;;;;12.20;11.10;;;24.70;24.90;;;;;;5065721;28;20176;-80
2023/08/23 02:24:30;;;;;;;10.57;9.97;;;24.70;24.90;;;;;;5066571;28;20242;-79
2023/08/23 02:26:56;;;;;;;11.10;10.43;;;24.70;24.90;;;;;;5043857;28;20653;-79
2023/08/23 02:29:21;;;;;;;11.17;10.60;;;24.70;24.90;;;;;;5058489;28;20172;-80
2023/08/23 02:31:47;;;;;;;11.70;10.90;;;24.60;24.80;;;;;;5060000;28;20177;-79
2023/08/23 02:34:13;;;;;;;11.40;10.70;;;24.50;24.70;;;;;;5060544;28;20196;-80
2023/08/23 02:36:38;;;;;;;12.53;11.80;;;24.50;24.80;;;;;;5058131;28;20175;-79
2023/08/23 02:39:04;;;;;;;10.83;10.33;;;24.50;24.70;;;;;;5058218;28;20239;-80
2023/08/23 02:41:29;;;;;;;11.70;10.73;;;24.50;24.90;;;;;;5041424;28;20203;-79
2023/08/23 02:43:55;;;;;;;11.87;10.97;;;24.50;24.70;;;;;;5064166;28;20192;-79
2023/08/23 02:46:20;;;;;;;11.07;10.37;;;24.50;24.70;;;;;;5065991;28;20176;-80
2023/08/23 02:48:46;;;;;;;11.53;10.90;;;24.50;24.90;;;;;;5065461;28;20171;-79
2023/08/23 02:51:11;;;;;;;11.90;11.20;;;24.40;24.90;;;;;;5057957;28;20180;-80
2023/08/23 02:53:37;;;;;;;11.90;11.07;;;24.40;25.30;;;;;;5057774;28;20261;-80
2023/08/23 02:56:03;;;;;;;11.83;11.23;;;24.40;25.30;;;;;;5057882;28;20199;-79
2023/08/23 02:58:28;;;;;;;11.30;10.50;;;24.40;25.10;;;;;;5057219;28;20198;-80
2023/08/23 03:00:54;;;;;;;12.13;11.10;;;24.50;25.00;;;;;;5056933;28;20270;-80
2023/08/23 03:03:20;;;;;;;11.00;10.40;;;24.50;25.30;;;;;;5058195;28;20311;-80
2023/08/23 03:05:56;;;;;;;12.57;11.87;;;24.50;25.10;;;;;;5057353;28;20176;-80
2023/08/23 03:08:22;;;;;;;12.23;11.50;;;24.40;25.30;;;;;;5057430;28;20461;-80
2023/08/23 03:10:48;;;;;;;12.80;12.10;;;24.40;25.50;;;;;;5057494;28;20414;-79
2023/08/23 03:13:13;;;;;;;12.13;11.53;;;24.30;25.40;;;;;;5057669;28;20435;-80
2023/08/23 03:15:39;;;;;;;12.70;12.00;;;24.30;25.60;;;;;;5057762;28;20544;-80
2023/08/23 03:18:05;;;;;;;11.90;11.17;;;24.30;25.70;;;;;;5057670;28;20171;-80
2023/08/23 03:20:30;;;;;;;13.33;12.43;;;24.30;25.60;;;;;;5057694;28;20208;-79
2023/08/23 03:22:56;;;;;;;11.43;10.83;;;24.30;25.70;;;;;;5056906;28;20234;-80
2023/08/23 03:25:21;;;;;;;13.17;12.37;;;24.30;25.70;;;;;;5057058;28;20617;-80
2023/08/23 03:27:52;;;;;;;12.20;11.50;;;24.30;25.70;;;;;;5056914;28;20207;-79
2023/08/23 03:30:21;;;;;;;12.50;11.90;;;24.30;26.00;;;;;;5057643;28;20602;-80
2023/08/23 03:32:47;;;;;;;12.60;11.90;;;24.20;25.80;;;;;;5059909;28;20437;-78
2023/08/23 03:35:13;;;;;;;13.03;12.33;;;24.20;26.10;;;;;;5043456;28;20414;-79
2023/08/23 03:37:39;;;;;;;12.37;11.50;;;24.10;26.40;;;;;;5062838;28;20429;-79
2023/08/23 03:40:05;;;;;;;13.07;12.37;;;24.00;26.60;;;;;;5064105;28;20171;-80
2023/08/23 03:42:30;;;;;;;12.90;12.30;;;23.80;27.00;;;;;;5063754;28;20434;-80
2023/08/23 03:44:56;;;;;;;12.87;12.10;;;23.80;27.00;;;;;;5061739;28;20463;-80
2023/08/23 03:47:22;;;;;;;12.80;12.00;;;23.90;26.90;;;;;;5045072;28;20238;-80
2023/08/23 03:49:48;;;;;;;13.30;12.60;;;23.90;26.90;;;;;;5060590;28;20179;-80
2023/08/23 03:52:14;;;;;;;13.43;12.63;;;23.90;26.70;;;;;;5042676;28;20222;-79
2023/08/23 03:54:40;;;;;;;12.30;11.60;;;24.00;26.80;;;;;;5060564;28;20406;-80
2023/08/23 03:57:05;;;;;;;11.80;11.10;;;24.00;26.50;;;;;;5060346;28;20180;-78
2023/08/23 03:59:31;;;;;;;13.43;12.27;;;23.90;27.10;;;;;;5060623;28;20200;-80
2023/08/23 04:01:57;;;;;;;12.97;12.33;;;23.90;26.80;;;;;;5060485;28;20183;-80
2023/08/23 04:04:22;;;;;;;12.60;11.90;;;23.80;27.00;;;;;;5043107;28;20177;-80
2023/08/23 04:06:48;;;;;;;13.57;12.67;;;23.80;27.20;;;;;;5060658;28;20198;-80
2023/08/23 04:09:13;;;;;;;13.57;12.60;;;23.90;27.10;;;;;;5061193;28;20168;-80
2023/08/23 04:11:39;;;;;;;13.57;12.97;;;23.90;26.80;;;;;;5042786;28;20235;-80
2023/08/23 04:14:05;;;;;;;13.63;13.03;;;23.80;27.00;;;;;;5059599;28;20219;-80
2023/08/23 04:16:30;;;;;;;13.57;12.93;;;23.80;27.00;;;;;;5060984;28;20175;-79
2023/08/23 04:18:56;;;;;;;13.40;12.80;;;23.80;27.00;;;;;;5059923;28;20243;-78
2023/08/23 04:21:21;;;;;;;14.83;13.83;;;23.80;27.00;;;;;;5058481;28;20170;-78
2023/08/23 04:23:47;;;;;;;14.57;13.70;;;23.90;26.90;;;;;;5057278;28;20604;-78
2023/08/23 04:26:13;;;;;;;12.87;12.27;;;23.90;27.00;;;;;;5056943;28;20172;-78
2023/08/23 04:28:39;;;;;;;13.63;12.83;;;23.80;26.80;;;;;;5056449;28;20171;-78
2023/08/23 04:31:04;;;;;;;15.03;13.73;;;23.70;27.00;;;;;;5057227;28;20869;-78
2023/08/23 04:33:30;;;;;;;14.63;13.60;;;23.60;27.60;;;;;;5056651;28;20203;-78
2023/08/23 04:36:05;;;;;;;14.10;13.27;;;23.60;27.60;;;;;;5051917;28;20168;-81
2023/08/23 04:38:32;;;;;;;12.93;12.33;;;23.70;27.60;;;;;;5055611;28;20214;-79
2023/08/23 04:41:01;;;;;;;13.67;12.87;;;23.70;27.50;;;;;;5040424;28;20456;-79
2023/08/23 04:43:27;;;;;;;13.93;13.13;;;23.70;27.30;;;;;;5041139;28;20442;-79
2023/08/23 04:45:57;;;;;;;13.50;12.80;;;23.80;27.30;;;;;;5059734;28;20418;-80
2023/08/23 04:48:23;;;;;;;13.77;12.97;;;23.80;27.20;;;;;;5041686;28;20481;-80
2023/08/23 04:50:53;;;;;;;13.90;13.20;;;23.80;26.90;;;;;;5042375;28;20422;-80
2023/08/23 04:53:19;;;;;;;14.30;13.70;;;23.80;27.00;;;;;;5041900;28;20449;-79
2023/08/23 04:55:45;;;;;;;13.63;12.60;;;23.80;27.20;;;;;;5060557;28;20829;-80
2023/08/23 04:58:11;;;;;;;13.53;12.40;;;23.80;26.90;;;;;;5041385;28;20215;-80
2023/08/23 05:00:38;;;;;;;13.30;12.40;;;23.90;27.00;;;;;;5042729;28;20422;-80
2023/08/23 05:03:04;;;;;;;12.43;11.63;;;23.90;27.00;;;;;;5042190;28;20204;-78
2023/08/23 05:05:29;;;;;;;12.87;12.17;;;23.70;27.50;;;;;;5042146;28;20482;-79
2023/08/23 05:07:55;;;;;;;14.17;13.37;;;23.70;27.50;;;;;;5060159;28;20501;-79
2023/08/23 05:10:21;;;;;;;12.33;11.73;;;23.70;27.50;;;;;;5060540;28;20178;-80
2023/08/23 05:12:47;;;;;;;13.30;12.60;;;23.80;27.50;;;;;;5042441;28;20200;-79
2023/08/23 05:15:12;;;;;;;13.60;12.90;;;23.80;27.30;;;;;;5071228;28;20415;-80
2023/08/23 05:17:38;;;;;;;14.33;13.63;;;23.80;27.40;;;;;;5059502;28;20180;-79
2023/08/23 05:20:05;;;;;;;13.70;13.00;;;23.70;27.50;;;;;;5076893;28;20176;-79
2023/08/23 05:22:30;;;;;;;12.60;12.00;;;23.70;27.30;;;;;;5057679;28;20693;-80
2023/08/23 05:24:56;;;;;;;14.67;13.77;;;23.70;27.20;;;;;;5059231;28;20418;-78
2023/08/23 05:27:33;;;;;;;14.30;13.37;;;23.80;27.40;;;;;;5061501;28;20204;-81
2023/08/23 05:30:43;;;;;;;13.87;13.17;;;23.80;27.50;;;;;;5045042;28;20286;-81
2023/08/23 05:36:31;;;;;;;14.93;14.13;;;23.80;27.40;;;;;;5061948;28;20488;-77
2023/08/23 05:39:27;;;;;;;13.53;12.73;;;23.70;27.40;;;;;;5058389;28;20403;-81
2023/08/23 05:41:59;;;;;;;15.80;14.80;;;23.70;27.60;;;;;;5057550;28;20195;-81
2023/08/23 05:44:24;;;;;;;15.30;14.40;;;23.70;27.80;;;;;;5040208;28;20430;-78
2023/08/23 05:46:50;;;;;;;14.27;13.53;;;23.70;27.80;;;;;;5056849;28;20485;-79
2023/08/23 05:49:16;;;;;;;13.80;13.10;;;23.80;27.80;;;;;;5057743;28;20180;-79
2023/08/23 05:51:42;;;;;;;14.87;14.10;;;23.80;27.50;;;;;;5039566;28;20717;-79
2023/08/23 05:54:07;;;;;;;15.93;14.73;;;23.80;27.60;;;;;;5057964;28;20473;-79
2023/08/23 05:56:33;;;;;;;14.70;13.80;;;23.80;27.40;;;;;;5058211;28;20184;-78
2023/08/23 05:58:59;;;;;;;14.80;13.77;;;23.80;27.10;;;;;;5057899;28;20294;-80
2023/08/23 06:01:25;;;;;;;15.07;14.07;;;23.90;27.30;;;;;;5058715;28;20489;-80
2023/08/23 06:03:50;;;;;;;14.37;13.50;;;23.90;27.10;;;;;;5058142;28;20358;-80
2023/08/23 06:06:16;;;;;;;14.03;13.20;;;23.80;26.90;;;;;;5058437;28;20180;-79
2023/08/23 06:08:41;;;;;;;13.03;12.23;;;23.80;27.20;;;;;;5057676;28;20239;-79
2023/08/23 06:11:07;;;;;;;13.33;12.53;;;23.90;27.50;;;;;;5057587;28;20635;-80
2023/08/23 06:13:33;;;;;;;13.00;12.30;;;23.90;27.10;;;;;;5057204;28;20199;-80
2023/08/23 06:15:58;;;;;;;13.90;13.13;;;23.90;27.30;;;;;;5057368;28;20183;-79
2023/08/23 06:18:24;;;;;;;13.87;13.27;;;23.90;27.30;;;;;;5056120;28;20626;-79
2023/08/23 06:20:49;;;;;;;14.13;13.33;;;24.00;27.30;;;;;;5055336;28;20214;-77
2023/08/23 06:23:15;;;;;;;14.50;13.60;;;24.00;27.40;;;;;;5055515;28;20684;-78
2023/08/23 06:25:41;;;;;;;14.80;13.90;;;24.00;27.50;;;;;;5055713;28;20605;-78
2023/08/23 06:28:08;;;;;;;14.90;14.00;;;24.00;27.20;;;;;;5055052;28;20204;-78
2023/08/23 06:30:37;;;;;;;15.90;14.93;;;24.10;27.20;;;;;;5055622;28;20226;-78
2023/08/23 06:33:05;;;;;;;15.73;14.83;;;24.10;26.90;;;;;;5055073;28;20517;-78
2023/08/23 06:35:31;;;;;;;15.77;14.97;;;24.00;26.80;;;;;;5054480;28;20460;-78
2023/08/23 06:37:57;;;;;;;15.03;14.23;;;24.10;26.80;;;;;;5054335;28;20438;-77
2023/08/23 06:40:22;;;;;;;15.20;14.40;;;24.10;27.10;;;;;;5054662;28;20418;-78
2023/08/23 06:42:48;;;;;;;15.40;14.50;;;24.10;26.80;;;;;;5056119;28;20648;-77
2023/08/23 06:45:14;;;;;;;15.33;14.40;;;24.10;27.00;;;;;;5054651;28;20672;-78
2023/08/23 06:47:39;;;;;;;15.53;14.57;;;24.10;27.20;;;;;;5054144;28;20345;-77
2023/08/23 06:50:06;;;;;;;15.53;14.70;;;24.10;27.30;;;;;;5056914;28;20179;-77
2023/08/23 06:52:32;;;;;;;14.70;13.97;;;24.10;27.40;;;;;;5059491;28;20250;-78
2023/08/23 06:54:57;;;;;;;14.93;14.13;;;24.10;26.70;;;;;;5059046;28;20419;-78
2023/08/23 06:57:29;;;;;;;14.27;13.47;;;24.10;27.30;;;;;;5058621;28;20180;-78
2023/08/23 06:59:59;;;;;;;15.77;14.60;;;24.00;27.40;;;;;;5057288;28;20563;-77
2023/08/23 07:02:25;;;;;;;15.27;14.37;;;24.00;27.40;;;;;;5055946;28;20442;-78
2023/08/23 07:04:52;;;;;;;16.03;14.83;;;24.00;27.50;;;;;;5055136;28;20414;-79
2023/08/23 07:07:21;;;;;;;16.27;15.00;;;24.10;27.30;;;;;;5044869;28;21097;-80
2023/08/23 07:09:47;;;;;;;15.33;14.30;;;24.10;27.20;;;;;;5045754;28;20432;-79
2023/08/23 07:12:13;;;;;;;14.97;14.17;;;24.10;27.30;;;;;;5053072;28;20936;-80
2023/08/23 07:14:39;;;;;;;16.53;15.07;;;24.20;27.00;;;;;;5058291;28;20425;-79
2023/08/23 07:17:04;;;;;;;15.30;14.40;;;24.10;27.00;;;;;;5058257;28;20172;-79
2023/08/23 07:19:30;;;;;;;14.97;14.20;;;24.20;27.40;;;;;;5057760;28;20176;-79
2023/08/23 07:21:57;;;;;;;14.53;13.70;;;24.20;27.20;;;;;;5058223;28;20172;-79
2023/08/23 07:24:22;;;;;;;15.07;14.10;;;24.30;27.40;;;;;;5056377;28;20205;-80
2023/08/23 07:26:48;;;;;;;15.60;14.60;;;24.40;27.40;;;;;;5041194;28;20466;-79
2023/08/23 07:29:15;;;;;;;15.70;14.80;;;24.40;26.80;;;;;;5058160;28;20175;-80
2023/08/23 07:31:42;;;;;;;14.63;13.53;;;24.50;27.40;;;;;;5058099;28;20221;-80
2023/08/23 07:34:07;;;;;;;16.33;15.37;;;24.50;27.10;;;;;;5056858;28;20432;-80
2023/08/23 07:36:33;;;;;;;15.40;14.37;;;24.60;26.70;;;;;;5057462;28;20407;-79
2023/08/23 07:38:58;;;;;;;16.13;15.10;;;24.70;26.70;;;;;;5057319;28;20589;-80
2023/08/23 07:41:24;;;;;;;14.40;13.47;;;24.60;26.80;;;;;;5058769;28;20518;-80
2023/08/23 07:43:49;;;;;;;15.13;14.33;;;24.70;26.60;;;;;;5056937;28;20693;-79
2023/08/23 07:46:15;;;;;;;14.53;13.23;;;24.80;26.20;;;;;;5056923;28;20176;-79
2023/08/23 07:48:41;;;;;;;15.40;14.20;;;24.80;26.00;;;;;;5038785;28;20592;-80
2023/08/23 07:51:07;;;;;;;14.47;13.67;;;24.80;25.20;;;;;;5057081;28;20269;-79
2023/08/23 07:53:33;;;;;;;14.67;13.87;;;24.80;25.50;;;;;;5056968;28;20214;-79
2023/08/23 07:55:59;;;;;;;14.27;13.27;;;24.80;25.30;;;;;;5056370;28;20485;-78
2023/08/23 07:58:24;;;;;;;14.00;13.23;;;24.90;25.00;;;;;;5056444;28;20410;-79
2023/08/23 08:00:51;;;;;;;15.20;14.23;;;24.90;25.00;;;;;;5056234;28;20168;-79
2023/08/23 08:03:17;;;;;;;14.87;13.50;;;24.90;25.00;;;;;;5057010;28;20192;-79
2023/08/23 08:05:42;;;;;;;15.37;14.50;;;25.00;24.60;;;;;;5056771;28;20421;-79
2023/08/23 08:08:08;;;;;;;14.30;13.40;;;25.00;24.40;;;;;;5057036;28;20943;-79
2023/08/23 08:10:34;;;;;;;14.13;13.13;;;25.10;24.00;;;;;;5056657;28;20168;-79
2023/08/23 08:12:59;;;;;;;15.03;14.13;;;25.10;23.50;;;;;;5057336;28;20224;-78
2023/08/23 08:15:26;;;;;;;14.50;13.40;;;25.20;23.90;;;;;;5055857;28;20410;-78
2023/08/23 08:17:52;;;;;;;14.53;13.63;;;25.30;24.10;;;;;;5057979;28;20187;-78
2023/08/23 08:20:19;;;;;;;14.00;13.10;;;25.30;23.90;;;;;;5060251;28;20413;-78
2023/08/23 08:22:44;;;;;;;17.00;15.90;;;25.30;24.20;;;;;;5059438;28;20500;-79
2023/08/23 08:25:10;;;;;;;15.17;14.30;;;25.40;24.10;;;;;;5060156;28;20803;-78
2023/08/23 08:27:35;;;;;;;16.63;15.60;;;25.30;24.10;;;;;;5059552;28;20195;-78
2023/08/23 08:30:02;;;;;;;15.57;14.50;;;25.30;23.80;;;;;;5059359;28;20198;-78
2023/08/23 08:32:28;;;;;;;15.80;14.50;;;25.40;24.10;;;;;;5059277;28;20242;-78
2023/08/23 08:34:55;;;;;;;14.13;13.23;;;25.40;23.90;;;;;;5060140;28;20489;-78
2023/08/23 08:37:21;;;;;;;14.20;13.30;;;25.40;23.90;;;;;;5059891;28;20168;-78
2023/08/23 08:39:47;;;;;;;14.47;13.57;;;25.50;24.20;;;;;;5059613;28;20515;-79
2023/08/23 08:42:12;;;;;;;14.63;13.70;;;25.50;23.40;;;;;;5059557;28;20435;-78
2023/08/23 08:44:38;;;;;;;15.27;14.07;;;25.50;23.70;;;;;;5060219;28;20176;-79
2023/08/23 08:47:04;;;;;;;14.17;13.10;;;25.60;23.80;;;;;;5059724;28;20253;-79
2023/08/23 08:49:29;;;;;;;14.80;13.90;;;25.70;22.90;;;;;;5041434;28;20442;-79
2023/08/23 08:51:59;;;;;;;18.33;13.13;;;25.80;22.60;;;;;;5059433;28;20199;-78
2023/08/23 08:54:25;;;;;;;13.30;12.67;;;25.90;22.10;;;;;;5056183;28;20194;-79
2023/08/23 08:56:51;;;;;;;13.67;12.83;;;26.00;22.10;;;;;;5021647;28;20419;-79
2023/08/23 08:59:17;;;;;;;13.50;12.57;;;26.00;22.00;;;;;;5039105;28;20936;-79
2023/08/23 09:01:45;;;;;;;13.70;12.93;;;26.20;21.40;;;;;;5039603;28;20910;-78
2023/08/23 09:04:11;;;;;;;13.30;12.57;;;26.20;21.30;;;;;;5038814;28;20478;-79
2023/08/23 09:06:37;;;;;;;12.80;12.10;;;26.30;21.00;;;;;;5039353;28;20419;-78
2023/08/23 09:09:03;;;;;;;14.07;13.17;;;26.40;20.40;;;;;;5039191;28;20252;-79
2023/08/23 09:11:30;;;;;;;12.40;11.70;;;26.40;20.80;;;;;;5039245;28;20773;-79
2023/08/23 09:13:55;;;;;;;13.80;13.00;;;26.40;21.20;;;;;;5038650;28;20463;-79
2023/08/23 09:16:24;;;;;;;12.93;12.03;;;26.60;20.30;;;;;;5039602;28;20407;-79
2023/08/23 09:18:49;;;;;;;14.13;13.20;;;26.70;19.90;;;;;;5037890;28;20639;-79
2023/08/23 09:21:18;;;;;;;13.30;12.40;;;26.80;20.10;;;;;;5039339;28;20423;-79
2023/08/23 09:23:43;;;;;;;12.90;11.93;;;26.80;19.70;;;;;;5021155;28;20212;-78
2023/08/23 09:26:09;;;;;;;12.47;11.77;;;26.90;19.40;;;;;;5038834;28;20415;-79
2023/08/23 09:28:35;;;;;;;13.13;12.23;;;27.00;19.10;;;;;;5038540;28;20207;-79
2023/08/23 09:31:01;;;;;;;12.57;11.67;;;27.30;17.70;;;;;;5018454;28;20180;-78
2023/08/23 09:33:27;;;;;;;13.03;12.20;;;27.50;17.80;;;;;;5036756;28;20249;-78
2023/08/23 09:35:54;;;;;;;13.40;12.60;;;27.60;17.80;;;;;;5017854;28;20275;-78
2023/08/23 09:38:22;;;;;;;12.90;12.00;;;27.70;17.10;;;;;;5036508;28;20415;-79
2023/08/23 09:40:48;;;;;;;12.27;11.67;;;28.00;16.60;;;;;;5035271;28;20902;-78
2023/08/23 09:43:16;;;;;;;13.63;12.73;;;28.10;16.30;;;;;;5036134;28;20672;-78
2023/08/23 09:45:41;;;;;;;12.93;12.30;;;28.20;16.40;;;;;;5036130;28;20423;-78
2023/08/23 09:48:10;;;;;;;15.33;13.87;;;28.30;16.10;;;;;;5036180;28;20489;-78
2023/08/23 09:50:36;;;;;;;13.83;12.80;;;28.40;15.50;;;;;;5035692;28;20176;-78
2023/08/23 09:53:11;;;;;;;13.00;11.93;;;28.50;15.10;;;;;;5035529;28;20438;-78
2023/08/23 09:55:39;;;;;;;13.80;12.90;;;28.60;14.80;;;;;;5035330;28;20626;-78
2023/08/23 09:58:05;;;;;;;11.67;11.17;;;28.70;14.50;;;;;;5034799;28;20935;-78
2023/08/23 10:00:30;;;;;;;12.90;12.10;;;28.70;14.40;;;;;;5034868;28;20426;-78
2023/08/23 10:02:57;;;;;;;12.47;11.77;;;28.80;14.00;;;;;;5016672;28;20443;-78
2023/08/23 10:05:23;;;;;;;12.83;12.10;;;28.90;14.40;;;;;;5034027;28;20176;-77
2023/08/23 10:07:50;;;;;;;12.63;11.83;;;29.00;14.10;;;;;;5033826;28;20462;-78
2023/08/23 10:10:15;;;;;;;12.30;11.60;;;29.10;13.90;;;;;;5034776;28;20411;-78
2023/08/23 10:12:45;;;;;;;12.20;11.60;;;29.10;14.50;;;;;;5034688;28;20869;-78
2023/08/23 10:15:13;;;;;;;13.47;12.40;;;29.10;13.40;;;;;;5034963;28;20160;-79
2023/08/23 10:17:41;;;;;;;13.07;12.10;;;29.10;14.00;;;;;;5034206;28;20909;-78
2023/08/23 10:20:10;;;;;;;12.60;11.90;;;29.10;13.50;;;;;;5034305;28;20457;-78
2023/08/23 10:22:37;;;;;;;12.50;11.90;;;29.10;13.00;;;;;;5033560;28;20846;-78
2023/08/23 10:25:17;;;;;;;12.43;11.60;;;29.10;12.90;;;;;;5034134;28;20501;-78
2023/08/23 10:27:45;;;;;;;12.07;11.37;;;29.30;13.50;;;;;;5037502;28;20450;-78
2023/08/23 10:30:15;;;;;;;12.10;11.50;;;29.30;13.10;;;;;;5037923;28;20500;-78
2023/08/23 10:32:44;;;;;;;11.50;10.90;;;29.30;12.50;;;;;;5037563;28;20428;-79
2023/08/23 10:35:31;;;;;;;12.13;11.47;;;29.40;12.20;;;;;;5037924;28;20410;-79
2023/08/23 10:37:57;;;;;;;11.70;11.00;;;29.40;12.20;;;;;;5037630;28;20494;-79
2023/08/23 10:40:27;;;;;;;12.10;11.30;;;29.40;12.30;;;;;;5037628;28;20804;-79
2023/08/23 10:42:52;;;;;;;11.57;10.97;;;29.50;12.40;;;;;;5037065;28;20431;-79
2023/08/23 10:45:18;;;;;;;12.23;11.43;;;29.60;12.20;;;;;;5037065;28;20567;-78
2023/08/23 10:47:48;;;;;;;12.03;11.27;;;29.60;11.80;;;;;;5037108;28;20236;-79
2023/08/23 10:50:15;;;;;;;12.50;11.73;;;29.60;11.70;;;;;;5037632;28;20602;-79
2023/08/23 10:52:40;;;;;;;10.37;9.80;;;29.70;11.90;;;;;;5037425;28;20424;-78
2023/08/23 10:55:06;;;;;;;11.63;10.57;;;29.60;11.80;;;;;;5037389;28;20476;-79
2023/08/23 10:57:32;;;;;;;11.60;10.90;;;29.60;12.30;;;;;;5038018;28;20252;-79
2023/08/23 10:59:58;;;;;;;10.90;10.40;;;29.70;11.90;;;;;;5036959;28;20450;-79
2023/08/23 11:02:23;;;;;;;11.70;10.90;;;29.60;11.40;;;;;;5037527;28;20250;-78
2023/08/23 11:04:49;;;;;;;11.77;10.90;;;29.60;11.80;;;;;;5036897;28;20179;-78
2023/08/23 11:07:15;;;;;;;11.80;11.00;;;29.40;11.50;;;;;;5037102;28;20697;-79
2023/08/23 11:09:41;;;;;;;12.10;11.50;;;29.40;12.20;;;;;;5036886;28;20574;-78
2023/08/23 11:12:07;;;;;;;12.30;11.70;;;29.40;12.60;;;;;;5037243;28;20490;-79
2023/08/23 11:14:33;;;;;;;11.43;10.73;;;29.30;12.20;;;;;;5037362;28;20525;-78
2023/08/23 11:16:59;;;;;;;12.03;11.23;;;29.30;12.90;;;;;;5036782;28;20442;-79
2023/08/23 11:19:24;;;;;;;12.93;12.03;;;29.30;12.80;;;;;;5037450;28;20180;-80
2023/08/23 11:21:51;;;;;;;12.03;11.43;;;29.20;13.00;;;;;;5037281;28;20180;-79
2023/08/23 11:24:17;;;;;;;11.53;10.93;;;29.20;13.00;;;;;;5036850;28;20220;-79
2023/08/23 11:26:43;;;;;;;11.90;11.30;;;29.20;13.10;;;;;;5037372;28;20414;-79
2023/08/23 11:29:08;;;;;;;11.47;10.67;;;29.10;12.90;;;;;;5037239;28;20455;-79
2023/08/23 11:31:35;;;;;;;12.10;11.10;;;29.20;12.90;;;;;;5037416;28;20200;-78
2023/08/23 11:34:08;;;;;;;11.60;11.00;;;29.10;12.70;;;;;;5036821;28;20196;-79
2023/08/23 11:36:34;;;;;;;12.10;11.50;;;29.00;13.00;;;;;;5037530;28;20745;-79
2023/08/23 11:39:03;;;;;;;13.23;12.10;;;28.90;13.80;;;;;;5037144;28;20417;-79
2023/08/23 11:41:30;;;;;;;12.63;11.63;;;28.90;13.30;;;;;;5037132;28;20403;-79
2023/08/23 11:43:56;;;;;;;11.47;10.77;;;29.00;13.40;;;;;;5037220;28;20427;-79
2023/08/23 11:46:21;;;;;;;13.27;12.17;;;28.90;13.60;;;;;;5037186;28;20422;-79
2023/08/23 11:48:47;;;;;;;12.53;11.73;;;28.90;13.70;;;;;;5037040;28;20540;-79
2023/08/23 11:51:12;;;;;;;13.30;12.20;;;28.80;13.90;;;;;;5036706;28;20188;-78
2023/08/23 11:53:57;;;;;;;13.10;12.10;;;28.80;13.90;;;;;;5040487;28;20193;-79
2023/08/23 11:56:23;;;;;;;12.50;11.70;;;28.80;14.00;;;;;;5022392;28;20181;-79
2023/08/23 11:58:49;;;;;;;13.60;12.70;;;28.80;13.50;;;;;;5040563;28;20415;-79
2023/08/23 12:01:14;;;;;;;12.27;11.47;;;28.80;14.00;;;;;;5038420;28;20431;-79
2023/08/23 12:03:40;;;;;;;12.80;11.70;;;28.70;14.00;;;;;;5022735;28;20578;-79
2023/08/23 12:06:06;;;;;;;13.23;12.37;;;28.80;14.00;;;;;;5041084;28;20255;-80
2023/08/23 12:08:33;;;;;;;13.70;12.60;;;28.90;13.60;;;;;;5040254;28;20205;-78
2023/08/23 12:10:59;;;;;;;11.80;11.27;;;29.00;13.80;;;;;;5040832;28;20172;-79
2023/08/23 12:13:24;;;;;;;12.80;12.10;;;29.00;13.50;;;;;;5022799;28;20478;-79
2023/08/23 12:15:50;;;;;;;13.40;12.43;;;29.00;13.70;;;;;;5040904;28;20267;-79
2023/08/23 12:18:15;;;;;;;12.67;12.07;;;29.00;13.60;;;;;;5040619;28;20649;-78
2023/08/23 12:20:41;;;;;;;12.63;11.93;;;28.90;14.10;;;;;;5040335;28;20255;-79
2023/08/23 12:23:06;;;;;;;12.33;11.63;;;29.00;13.50;;;;;;5040017;28;20200;-79
2023/08/23 12:25:32;;;;;;;12.80;11.73;;;29.20;13.10;;;;;;5041052;28;20173;-79
2023/08/23 12:27:58;;;;;;;11.73;11.07;;;29.20;13.20;;;;;;5039703;28;20201;-78
2023/08/23 12:30:23;;;;;;;11.57;10.87;;;29.20;13.60;;;;;;5040583;28;20177;-79